sensor_id;sensor_type;location;lat;lon;timestamp;P1;durP1;ratioP1;P2;durP2;ratioP2
45962;SDS011;31669;49.892;20.818;2023-02-18T00:01:49;0.70;;;0.60;;
45962;SDS011;31669;49.892;20.818;2023-02-18T00:06:49;1.80;;;1.43;;
45962;SDS011;31669;49.892;20.818;2023-02-18T00:11:50;3.50;;;1.37;;
45962;SDS011;31669;49.892;20.818;2023-02-18T00:16:51;1.02;;;1.00;;
45962;SDS011;31669;49.892;20.818;2023-02-18T00:21:52;2.50;;;1.40;;
45962;SDS011;31669;49.892;20.818;2023-02-18T00:26:52;1.77;;;1.53;;
45962;SDS011;31669;49.892;20.818;2023-02-18T00:31:53;2.80;;;1.80;;
45962;SDS011;31669;49.892;20.818;2023-02-18T00:36:54;1.83;;;1.40;;
45962;SDS011;31669;49.892;20.818;2023-02-18T00:41:54;2.00;;;1.00;;
45962;SDS011;31669;49.892;20.818;2023-02-18T00:46:55;1.10;;;1.07;;
45962;SDS011;31669;49.892;20.818;2023-02-18T00:51:56;3.27;;;1.77;;
45962;SDS011;31669;49.892;20.818;2023-02-18T00:56:57;0.90;;;0.90;;
45962;SDS011;31669;49.892;20.818;2023-02-18T01:01:57;3.10;;;1.47;;
45962;SDS011;31669;49.892;20.818;2023-02-18T01:06:58;1.90;;;1.33;;
45962;SDS011;31669;49.892;20.818;2023-02-18T01:11:59;2.93;;;1.57;;
45962;SDS011;31669;49.892;20.818;2023-02-18T01:16:59;1.90;;;1.10;;
45962;SDS011;31669;49.892;20.818;2023-02-18T01:22:00;1.97;;;1.00;;
45962;SDS011;31669;49.892;20.818;2023-02-18T01:27:01;1.73;;;1.52;;
45962;SDS011;31669;49.892;20.818;2023-02-18T01:32:02;3.77;;;1.27;;
45962;SDS011;31669;49.892;20.818;2023-02-18T01:37:03;1.83;;;1.73;;
45962;SDS011;31669;49.892;20.818;2023-02-18T01:42:03;1.10;;;0.87;;
45962;SDS011;31669;49.892;20.818;2023-02-18T01:47:04;2.80;;;1.60;;
45962;SDS011;31669;49.892;20.818;2023-02-18T01:52:09;0.20;;;0.20;;
45962;SDS011;31669;49.892;20.818;2023-02-18T01:57:11;0.00;;;0.00;;
45962;SDS011;31669;49.892;20.818;2023-02-18T02:02:15;0.00;;;0.00;;
45962;SDS011;31669;49.892;20.818;2023-02-18T02:07:18;0.00;;;0.00;;
45962;SDS011;31669;49.892;20.818;2023-02-18T02:54:17;0.00;;;0.00;;
45962;SDS011;31669;49.892;20.818;2023-02-18T02:59:20;0.00;;;0.00;;
45962;SDS011;31669;49.892;20.818;2023-02-18T03:04:26;0.00;;;0.00;;
45962;SDS011;31669;49.892;20.818;2023-02-18T03:19:39;0.00;;;0.00;;
45962;SDS011;31669;49.892;20.818;2023-02-18T03:24:42;0.00;;;0.00;;
45962;SDS011;31669;49.892;20.818;2023-02-18T03:29:44;0.00;;;0.00;;
45962;SDS011;31669;49.892;20.818;2023-02-18T03:34:47;0.00;;;0.00;;
45962;SDS011;31669;49.892;20.818;2023-02-18T03:39:49;0.00;;;0.00;;
45962;SDS011;31669;49.892;20.818;2023-02-18T03:44:52;0.00;;;0.00;;
45962;SDS011;31669;49.892;20.818;2023-02-18T03:49:52;0.17;;;0.17;;
45962;SDS011;31669;49.892;20.818;2023-02-18T03:54:53;0.00;;;0.00;;
45962;SDS011;31669;49.892;20.818;2023-02-18T03:59:54;0.00;;;0.00;;
45962;SDS011;31669;49.892;20.818;2023-02-18T04:04:55;0.00;;;0.00;;
45962;SDS011;31669;49.892;20.818;2023-02-18T04:09:55;0.00;;;0.00;;
45962;SDS011;31669;49.892;20.818;2023-02-18T04:14:56;0.00;;;0.00;;
45962;SDS011;31669;49.892;20.818;2023-02-18T04:19:57;0.00;;;0.00;;
45962;SDS011;31669;49.892;20.818;2023-02-18T04:24:58;0.00;;;0.00;;
45962;SDS011;31669;49.892;20.818;2023-02-18T04:29:59;0.00;;;0.00;;
45962;SDS011;31669;49.892;20.818;2023-02-18T04:35:00;0.00;;;0.00;;
45962;SDS011;31669;49.892;20.818;2023-02-18T04:40:01;0.00;;;0.00;;
45962;SDS011;31669;49.892;20.818;2023-02-18T04:45:02;0.55;;;0.55;;
45962;SDS011;31669;49.892;20.818;2023-02-18T04:50:03;0.00;;;0.00;;
45962;SDS011;31669;49.892;20.818;2023-02-18T04:55:04;0.00;;;0.00;;
45962;SDS011;31669;49.892;20.818;2023-02-18T05:00:05;0.00;;;0.00;;
45962;SDS011;31669;49.892;20.818;2023-02-18T05:05:06;0.00;;;0.00;;
45962;SDS011;31669;49.892;20.818;2023-02-18T05:10:08;0.00;;;0.00;;
45962;SDS011;31669;49.892;20.818;2023-02-18T05:15:09;0.00;;;0.00;;
45962;SDS011;31669;49.892;20.818;2023-02-18T05:20:10;1.00;;;0.93;;
45962;SDS011;31669;49.892;20.818;2023-02-18T05:25:11;1.75;;;1.15;;
45962;SDS011;31669;49.892;20.818;2023-02-18T05:30:12;0.00;;;0.00;;
45962;SDS011;31669;49.892;20.818;2023-02-18T05:35:12;0.00;;;0.00;;
45962;SDS011;31669;49.892;20.818;2023-02-18T05:40:13;0.00;;;0.00;;
45962;SDS011;31669;49.892;20.818;2023-02-18T05:45:14;0.00;;;0.00;;
45962;SDS011;31669;49.892;20.818;2023-02-18T05:50:15;0.00;;;0.00;;
45962;SDS011;31669;49.892;20.818;2023-02-18T05:55:16;0.00;;;0.00;;
45962;SDS011;31669;49.892;20.818;2023-02-18T06:00:16;0.00;;;0.00;;
45962;SDS011;31669;49.892;20.818;2023-02-18T06:05:18;0.00;;;0.00;;
45962;SDS011;31669;49.892;20.818;2023-02-18T06:10:18;0.20;;;0.20;;
45962;SDS011;31669;49.892;20.818;2023-02-18T06:15:19;0.27;;;0.27;;
45962;SDS011;31669;49.892;20.818;2023-02-18T06:20:20;0.00;;;0.00;;
45962;SDS011;31669;49.892;20.818;2023-02-18T06:25:20;0.00;;;0.00;;
45962;SDS011;31669;49.892;20.818;2023-02-18T06:30:21;0.00;;;0.00;;
45962;SDS011;31669;49.892;20.818;2023-02-18T06:35:22;0.00;;;0.00;;
45962;SDS011;31669;49.892;20.818;2023-02-18T06:40:23;0.00;;;0.00;;
45962;SDS011;31669;49.892;20.818;2023-02-18T06:45:24;0.35;;;0.35;;
45962;SDS011;31669;49.892;20.818;2023-02-18T06:50:24;0.00;;;0.00;;
45962;SDS011;31669;49.892;20.818;2023-02-18T06:55:25;0.00;;;0.00;;
45962;SDS011;31669;49.892;20.818;2023-02-18T07:00:26;1.80;;;0.50;;
45962;SDS011;31669;49.892;20.818;2023-02-18T07:05:27;1.97;;;1.53;;
45962;SDS011;31669;49.892;20.818;2023-02-18T07:10:27;0.25;;;0.20;;
45962;SDS011;31669;49.892;20.818;2023-02-18T07:15:28;1.23;;;0.37;;
45962;SDS011;31669;49.892;20.818;2023-02-18T07:20:29;1.03;;;0.43;;
45962;SDS011;31669;49.892;20.818;2023-02-18T07:25:30;1.33;;;0.70;;
45962;SDS011;31669;49.892;20.818;2023-02-18T07:30:30;0.47;;;0.37;;
45962;SDS011;31669;49.892;20.818;2023-02-18T07:35:31;1.00;;;0.73;;
45962;SDS011;31669;49.892;20.818;2023-02-18T07:40:32;1.10;;;0.30;;
45962;SDS011;31669;49.892;20.818;2023-02-18T07:45:32;2.50;;;0.40;;
45962;SDS011;31669;49.892;20.818;2023-02-18T07:50:33;3.00;;;0.53;;
45962;SDS011;31669;49.892;20.818;2023-02-18T07:55:37;0.65;;;0.40;;
45962;SDS011;31669;49.892;20.818;2023-02-18T08:00:50;1.20;;;0.55;;
45962;SDS011;31669;49.892;20.818;2023-02-18T08:05:53;1.85;;;0.60;;
45962;SDS011;31669;49.892;20.818;2023-02-18T08:10:55;1.35;;;0.40;;
45962;SDS011;31669;49.892;20.818;2023-02-18T08:16:05;0.25;;;0.13;;
45962;SDS011;31669;49.892;20.818;2023-02-18T08:21:06;0.55;;;0.30;;
45962;SDS011;31669;49.892;20.818;2023-02-18T08:26:07;1.40;;;0.30;;
45962;SDS011;31669;49.892;20.818;2023-02-18T08:31:12;0.10;;;0.10;;
45962;SDS011;31669;49.892;20.818;2023-02-18T08:36:14;2.85;;;1.60;;
45962;SDS011;31669;49.892;20.818;2023-02-18T08:41:15;1.90;;;0.40;;
45962;SDS011;31669;49.892;20.818;2023-02-18T08:46:18;1.40;;;0.75;;
45962;SDS011;31669;49.892;20.818;2023-02-18T08:51:19;1.53;;;0.43;;
45962;SDS011;31669;49.892;20.818;2023-02-18T08:56:20;0.22;;;0.20;;
45962;SDS011;31669;49.892;20.818;2023-02-18T09:01:21;0.82;;;0.50;;
45962;SDS011;31669;49.892;20.818;2023-02-18T09:06:22;2.40;;;0.60;;
45962;SDS011;31669;49.892;20.818;2023-02-18T09:11:23;1.40;;;0.77;;
45962;SDS011;31669;49.892;20.818;2023-02-18T09:16:24;0.47;;;0.30;;
45962;SDS011;31669;49.892;20.818;2023-02-18T09:21:25;2.30;;;0.70;;
45962;SDS011;31669;49.892;20.818;2023-02-18T09:26:25;1.45;;;0.70;;
45962;SDS011;31669;49.892;20.818;2023-02-18T09:31:29;0.98;;;0.40;;
45962;SDS011;31669;49.892;20.818;2023-02-18T09:36:30;1.17;;;0.45;;
45962;SDS011;31669;49.892;20.818;2023-02-18T09:41:41;1.50;;;0.50;;
45962;SDS011;31669;49.892;20.818;2023-02-18T09:51:44;1.95;;;0.52;;
45962;SDS011;31669;49.892;20.818;2023-02-18T09:56:45;2.33;;;0.22;;
45962;SDS011;31669;49.892;20.818;2023-02-18T10:01:48;4.05;;;0.60;;
45962;SDS011;31669;49.892;20.818;2023-02-18T10:06:51;1.60;;;0.60;;
45962;SDS011;31669;49.892;20.818;2023-02-18T10:11:57;1.90;;;0.55;;
45962;SDS011;31669;49.892;20.818;2023-02-18T10:16:59;3.75;;;1.48;;
45962;SDS011;31669;49.892;20.818;2023-02-18T10:22:01;0.30;;;0.30;;
45962;SDS011;31669;49.892;20.818;2023-02-18T10:27:04;1.20;;;0.40;;
45962;SDS011;31669;49.892;20.818;2023-02-18T10:32:22;0.55;;;0.20;;
45962;SDS011;31669;49.892;20.818;2023-02-18T10:37:29;1.67;;;0.30;;
45962;SDS011;31669;49.892;20.818;2023-02-18T10:42:36;0.47;;;0.20;;
45962;SDS011;31669;49.892;20.818;2023-02-18T10:47:42;1.33;;;0.55;;
45962;SDS011;31669;49.892;20.818;2023-02-18T10:52:44;2.25;;;0.90;;
45962;SDS011;31669;49.892;20.818;2023-02-18T10:57:48;1.80;;;0.60;;
45962;SDS011;31669;49.892;20.818;2023-02-18T11:08:26;1.75;;;0.82;;
45962;SDS011;31669;49.892;20.818;2023-02-18T11:13:28;0.85;;;0.50;;
45962;SDS011;31669;49.892;20.818;2023-02-18T11:23:47;2.30;;;0.70;;
45962;SDS011;31669;49.892;20.818;2023-02-18T11:28:49;2.42;;;1.10;;
45962;SDS011;31669;49.892;20.818;2023-02-18T11:33:56;1.77;;;0.95;;
45962;SDS011;31669;49.892;20.818;2023-02-18T11:38:58;2.38;;;1.10;;
45962;SDS011;31669;49.892;20.818;2023-02-18T11:43:59;2.88;;;1.15;;
45962;SDS011;31669;49.892;20.818;2023-02-18T11:49:10;1.45;;;0.70;;
45962;SDS011;31669;49.892;20.818;2023-02-18T11:54:27;2.05;;;0.98;;
45962;SDS011;31669;49.892;20.818;2023-02-18T11:59:31;1.33;;;0.70;;
45962;SDS011;31669;49.892;20.818;2023-02-18T12:04:35;1.75;;;1.23;;
45962;SDS011;31669;49.892;20.818;2023-02-18T12:09:38;1.45;;;1.10;;
45962;SDS011;31669;49.892;20.818;2023-02-18T12:14:40;5.38;;;1.17;;
45962;SDS011;31669;49.892;20.818;2023-02-18T12:19:56;1.30;;;0.80;;
45962;SDS011;31669;49.892;20.818;2023-02-18T12:25:09;0.93;;;0.77;;
45962;SDS011;31669;49.892;20.818;2023-02-18T13:01:38;1.38;;;0.60;;
45962;SDS011;31669;49.892;20.818;2023-02-18T13:17:07;3.83;;;1.60;;
45962;SDS011;31669;49.892;20.818;2023-02-18T13:22:09;0.90;;;0.45;;
45962;SDS011;31669;49.892;20.818;2023-02-18T13:27:30;0.70;;;0.63;;
45962;SDS011;31669;49.892;20.818;2023-02-18T13:32:37;4.97;;;1.02;;
45962;SDS011;31669;49.892;20.818;2023-02-18T13:48:24;3.97;;;2.05;;
45962;SDS011;31669;49.892;20.818;2023-02-18T13:53:25;7.57;;;1.67;;
45962;SDS011;31669;49.892;20.818;2023-02-18T13:58:42;3.58;;;1.58;;
45962;SDS011;31669;49.892;20.818;2023-02-18T14:08:44;3.03;;;1.60;;
45962;SDS011;31669;49.892;20.818;2023-02-18T14:13:49;2.33;;;1.25;;
45962;SDS011;31669;49.892;20.818;2023-02-18T14:18:54;2.47;;;1.75;;
45962;SDS011;31669;49.892;20.818;2023-02-18T14:23:56;2.00;;;1.52;;
45962;SDS011;31669;49.892;20.818;2023-02-18T14:29:14;5.35;;;2.05;;
45962;SDS011;31669;49.892;20.818;2023-02-18T14:50:00;6.18;;;2.90;;
45962;SDS011;31669;49.892;20.818;2023-02-18T14:55:04;11.45;;;4.80;;
45962;SDS011;31669;49.892;20.818;2023-02-18T15:00:05;9.18;;;4.15;;
45962;SDS011;31669;49.892;20.818;2023-02-18T15:10:12;7.68;;;2.65;;
45962;SDS011;31669;49.892;20.818;2023-02-18T15:15:14;7.20;;;3.85;;
45962;SDS011;31669;49.892;20.818;2023-02-18T15:20:15;5.80;;;2.42;;
45962;SDS011;31669;49.892;20.818;2023-02-18T15:25:16;5.97;;;2.85;;
45962;SDS011;31669;49.892;20.818;2023-02-18T15:35:18;15.40;;;6.87;;
45962;SDS011;31669;49.892;20.818;2023-02-18T15:40:21;16.83;;;5.82;;
45962;SDS011;31669;49.892;20.818;2023-02-18T15:45:23;27.15;;;11.07;;
45962;SDS011;31669;49.892;20.818;2023-02-18T15:50:29;19.13;;;8.60;;
45962;SDS011;31669;49.892;20.818;2023-02-18T15:55:33;22.90;;;7.30;;
45962;SDS011;31669;49.892;20.818;2023-02-18T16:00:36;17.52;;;7.50;;
45962;SDS011;31669;49.892;20.818;2023-02-18T16:05:38;55.53;;;18.52;;
45962;SDS011;31669;49.892;20.818;2023-02-18T16:10:45;55.95;;;19.40;;
45962;SDS011;31669;49.892;20.818;2023-02-18T16:15:48;35.30;;;15.15;;
45962;SDS011;31669;49.892;20.818;2023-02-18T16:20:53;25.13;;;9.35;;
45962;SDS011;31669;49.892;20.818;2023-02-18T16:25:55;27.15;;;9.63;;
45962;SDS011;31669;49.892;20.818;2023-02-18T16:30:55;18.85;;;9.00;;
45962;SDS011;31669;49.892;20.818;2023-02-18T16:35:56;19.43;;;7.70;;
45962;SDS011;31669;49.892;20.818;2023-02-18T16:41:02;18.38;;;8.68;;
45962;SDS011;31669;49.892;20.818;2023-02-18T16:46:04;15.65;;;7.28;;
45962;SDS011;31669;49.892;20.818;2023-02-18T16:51:13;13.07;;;6.82;;
45962;SDS011;31669;49.892;20.818;2023-02-18T16:56:20;14.18;;;6.15;;
45962;SDS011;31669;49.892;20.818;2023-02-18T17:06:22;7.68;;;5.50;;
45962;SDS011;31669;49.892;20.818;2023-02-18T17:11:31;19.10;;;9.77;;
45962;SDS011;31669;49.892;20.818;2023-02-18T17:16:32;33.78;;;15.57;;
45962;SDS011;31669;49.892;20.818;2023-02-18T17:21:33;49.50;;;22.83;;
45962;SDS011;31669;49.892;20.818;2023-02-18T17:26:34;38.87;;;19.97;;
45962;SDS011;31669;49.892;20.818;2023-02-18T17:31:35;27.87;;;10.07;;
45962;SDS011;31669;49.892;20.818;2023-02-18T17:36:37;21.83;;;10.82;;
45962;SDS011;31669;49.892;20.818;2023-02-18T17:41:39;28.50;;;11.18;;
45962;SDS011;31669;49.892;20.818;2023-02-18T17:46:39;5.60;;;3.60;;
45962;SDS011;31669;49.892;20.818;2023-02-18T17:51:40;10.93;;;5.03;;
45962;SDS011;31669;49.892;20.818;2023-02-18T17:56:41;4.95;;;1.88;;
45962;SDS011;31669;49.892;20.818;2023-02-18T18:06:43;2.90;;;1.80;;
45962;SDS011;31669;49.892;20.818;2023-02-18T18:11:46;4.25;;;1.90;;
45962;SDS011;31669;49.892;20.818;2023-02-18T18:16:47;3.30;;;2.25;;
45962;SDS011;31669;49.892;20.818;2023-02-18T18:21:47;5.47;;;2.80;;
45962;SDS011;31669;49.892;20.818;2023-02-18T18:26:48;4.18;;;2.10;;
45962;SDS011;31669;49.892;20.818;2023-02-18T18:31:49;5.03;;;2.30;;
45962;SDS011;31669;49.892;20.818;2023-02-18T18:36:50;2.97;;;2.00;;
45962;SDS011;31669;49.892;20.818;2023-02-18T18:41:51;3.97;;;1.77;;
45962;SDS011;31669;49.892;20.818;2023-02-18T18:46:51;6.37;;;3.17;;
45962;SDS011;31669;49.892;20.818;2023-02-18T18:51:52;6.27;;;3.23;;
45962;SDS011;31669;49.892;20.818;2023-02-18T18:56:53;3.33;;;1.97;;
45962;SDS011;31669;49.892;20.818;2023-02-18T19:01:54;4.28;;;2.25;;
45962;SDS011;31669;49.892;20.818;2023-02-18T19:06:55;2.42;;;2.13;;
45962;SDS011;31669;49.892;20.818;2023-02-18T19:11:56;4.35;;;2.25;;
45962;SDS011;31669;49.892;20.818;2023-02-18T19:16:57;3.80;;;1.90;;
45962;SDS011;31669;49.892;20.818;2023-02-18T19:21:58;3.25;;;2.00;;
45962;SDS011;31669;49.892;20.818;2023-02-18T19:26:59;2.60;;;1.87;;
45962;SDS011;31669;49.892;20.818;2023-02-18T19:31:59;4.43;;;2.00;;
45962;SDS011;31669;49.892;20.818;2023-02-18T19:37:00;2.63;;;1.80;;
45962;SDS011;31669;49.892;20.818;2023-02-18T19:42:01;3.35;;;2.22;;
45962;SDS011;31669;49.892;20.818;2023-02-18T19:47:02;2.60;;;1.33;;
45962;SDS011;31669;49.892;20.818;2023-02-18T19:52:03;5.00;;;2.38;;
45962;SDS011;31669;49.892;20.818;2023-02-18T19:57:03;1.43;;;1.23;;
45962;SDS011;31669;49.892;20.818;2023-02-18T20:02:06;6.20;;;3.10;;
45962;SDS011;31669;49.892;20.818;2023-02-18T20:07:07;5.13;;;2.42;;
45962;SDS011;31669;49.892;20.818;2023-02-18T20:12:08;1.80;;;1.43;;
45962;SDS011;31669;49.892;20.818;2023-02-18T20:17:10;4.00;;;1.55;;
45962;SDS011;31669;49.892;20.818;2023-02-18T20:22:11;0.37;;;0.20;;
45962;SDS011;31669;49.892;20.818;2023-02-18T20:27:12;4.97;;;2.00;;
45962;SDS011;31669;49.892;20.818;2023-02-18T20:32:13;6.03;;;2.47;;
45962;SDS011;31669;49.892;20.818;2023-02-18T20:37:13;3.83;;;1.80;;
45962;SDS011;31669;49.892;20.818;2023-02-18T20:42:14;2.73;;;1.23;;
45962;SDS011;31669;49.892;20.818;2023-02-18T20:47:15;4.60;;;1.73;;
45962;SDS011;31669;49.892;20.818;2023-02-18T20:52:16;4.38;;;2.00;;
45962;SDS011;31669;49.892;20.818;2023-02-18T20:57:19;5.85;;;2.15;;
45962;SDS011;31669;49.892;20.818;2023-02-18T21:02:20;3.63;;;1.97;;
45962;SDS011;31669;49.892;20.818;2023-02-18T21:07:21;3.07;;;1.30;;
45962;SDS011;31669;49.892;20.818;2023-02-18T21:12:22;2.73;;;1.13;;
45962;SDS011;31669;49.892;20.818;2023-02-18T21:17:22;2.27;;;1.03;;
45962;SDS011;31669;49.892;20.818;2023-02-18T21:22:23;3.47;;;1.73;;
45962;SDS011;31669;49.892;20.818;2023-02-18T21:27:24;4.80;;;1.85;;
45962;SDS011;31669;49.892;20.818;2023-02-18T21:32:25;1.83;;;1.50;;
45962;SDS011;31669;49.892;20.818;2023-02-18T21:37:26;3.28;;;1.40;;
45962;SDS011;31669;49.892;20.818;2023-02-18T21:42:26;1.53;;;1.20;;
45962;SDS011;31669;49.892;20.818;2023-02-18T21:47:27;3.33;;;1.50;;
45962;SDS011;31669;49.892;20.818;2023-02-18T21:52:28;2.45;;;1.23;;
45962;SDS011;31669;49.892;20.818;2023-02-18T21:57:29;1.60;;;1.30;;
45962;SDS011;31669;49.892;20.818;2023-02-18T22:02:30;1.80;;;1.43;;
45962;SDS011;31669;49.892;20.818;2023-02-18T22:07:31;3.50;;;0.75;;
45962;SDS011;31669;49.892;20.818;2023-02-18T22:12:32;0.63;;;0.63;;
45962;SDS011;31669;49.892;20.818;2023-02-18T22:17:33;0.95;;;0.68;;
45962;SDS011;31669;49.892;20.818;2023-02-18T22:22:34;2.63;;;1.20;;
45962;SDS011;31669;49.892;20.818;2023-02-18T22:27:35;0.73;;;0.73;;
45962;SDS011;31669;49.892;20.818;2023-02-18T22:32:35;1.55;;;0.60;;
45962;SDS011;31669;49.892;20.818;2023-02-18T22:37:36;1.77;;;1.00;;
45962;SDS011;31669;49.892;20.818;2023-02-18T22:42:37;2.73;;;0.90;;
45962;SDS011;31669;49.892;20.818;2023-02-18T22:47:38;1.10;;;0.77;;
45962;SDS011;31669;49.892;20.818;2023-02-18T22:52:38;1.60;;;0.97;;
45962;SDS011;31669;49.892;20.818;2023-02-18T22:57:39;1.80;;;0.70;;
45962;SDS011;31669;49.892;20.818;2023-02-18T23:02:40;0.90;;;0.60;;
45962;SDS011;31669;49.892;20.818;2023-02-18T23:07:40;2.83;;;1.10;;
45962;SDS011;31669;49.892;20.818;2023-02-18T23:12:41;3.40;;;1.90;;
45962;SDS011;31669;49.892;20.818;2023-02-18T23:17:42;1.53;;;0.73;;
45962;SDS011;31669;49.892;20.818;2023-02-18T23:22:43;3.07;;;1.10;;
45962;SDS011;31669;49.892;20.818;2023-02-18T23:27:45;1.88;;;0.98;;
45962;SDS011;31669;49.892;20.818;2023-02-18T23:32:46;1.90;;;0.70;;
45962;SDS011;31669;49.892;20.818;2023-02-18T23:38:04;1.25;;;0.85;;
45962;SDS011;31669;49.892;20.818;2023-02-18T23:43:18;1.83;;;0.77;;
45962;SDS011;31669;49.892;20.818;2023-02-18T23:48:18;1.50;;;0.63;;
45962;SDS011;31669;49.892;20.818;2023-02-18T23:53:19;0.43;;;0.43;;
45962;SDS011;31669;49.892;20.818;2023-02-18T23:58:20;1.73;;;0.80;;
